createdAt,value
2023-04-26T00:00:29.517Z,1.67
2023-04-26T00:03:00.087Z,1.00
2023-04-26T00:05:29.676Z,1.63
2023-04-26T00:07:58.479Z,1.10
2023-04-26T00:10:27.181Z,1.30
2023-04-26T00:12:55.869Z,1.10
2023-04-26T00:15:25.808Z,1.10
2023-04-26T00:17:54.520Z,1.53
2023-04-26T00:20:23.081Z,1.40
2023-04-26T00:22:51.676Z,1.37
2023-04-26T00:25:20.384Z,2.33
2023-04-26T00:27:48.798Z,1.67
2023-04-26T00:30:17.543Z,1.17
2023-04-26T00:32:48.209Z,1.27
2023-04-26T00:35:16.879Z,1.30
2023-04-26T00:37:45.434Z,1.20
2023-04-26T00:40:16.288Z,1.40
2023-04-26T00:42:44.801Z,1.67
2023-04-26T00:45:13.475Z,1.23
2023-04-26T00:47:42.425Z,1.23
2023-04-26T00:50:12.775Z,1.67
2023-04-26T00:52:41.462Z,1.40
2023-04-26T00:55:10.823Z,1.10
2023-04-26T00:57:40.461Z,1.40
2023-04-26T01:00:10.458Z,1.40
2023-04-26T01:02:39.425Z,2.07
2023-04-26T01:05:09.319Z,1.40
2023-04-26T01:07:40.057Z,1.20
2023-04-26T01:10:10.571Z,1.47
2023-04-26T01:12:39.804Z,1.47
2023-04-26T01:15:09.674Z,1.40
2023-04-26T01:17:39.849Z,1.10
2023-04-26T01:20:10.576Z,1.33
2023-04-26T01:22:40.645Z,1.20
2023-04-26T01:25:13.668Z,1.50
2023-04-26T01:27:42.266Z,1.43
2023-04-26T01:30:11.948Z,1.93
2023-04-26T01:32:40.616Z,1.40
2023-04-26T01:35:09.782Z,1.37
2023-04-26T01:37:39.789Z,1.60
2023-04-26T01:40:09.863Z,1.40
2023-04-26T01:42:38.906Z,1.20
2023-04-26T01:45:08.569Z,1.30
2023-04-26T01:47:55.628Z,1.50
2023-04-26T01:50:25.175Z,1.33
2023-04-26T01:52:55.108Z,2.13
2023-04-26T01:55:23.740Z,1.67
2023-04-26T01:57:52.234Z,1.70
2023-04-26T02:00:21.478Z,1.40
2023-04-26T02:02:51.211Z,1.20
2023-04-26T02:05:19.940Z,1.20
2023-04-26T02:07:48.640Z,1.40
2023-04-26T02:10:18.840Z,1.43
2023-04-26T02:12:47.403Z,1.40
2023-04-26T02:15:16.034Z,1.77
2023-04-26T02:17:44.922Z,0.97
2023-04-26T02:20:13.917Z,1.40
2023-04-26T02:22:42.416Z,1.60
2023-04-26T02:25:11.745Z,1.23
2023-04-26T02:27:42.103Z,1.10
2023-04-26T02:30:11.831Z,1.00
2023-04-26T02:32:40.480Z,1.30
2023-04-26T02:35:10.835Z,1.60
2023-04-26T02:37:39.453Z,1.67
2023-04-26T02:40:11.042Z,1.23
2023-04-26T02:42:41.117Z,1.20
2023-04-26T02:45:10.591Z,1.13
2023-04-26T02:47:39.288Z,1.40
2023-04-26T02:50:10.087Z,1.60
2023-04-26T02:52:39.225Z,1.30
2023-04-26T02:55:09.076Z,1.57
2023-04-26T02:57:37.878Z,2.00
2023-04-26T03:00:14.119Z,1.57
2023-04-26T03:02:42.977Z,1.17
2023-04-26T03:05:11.658Z,1.40
2023-04-26T03:07:40.158Z,1.40
2023-04-26T03:10:09.959Z,1.10
2023-04-26T03:12:39.207Z,1.40
2023-04-26T03:15:10.024Z,1.30
2023-04-26T03:17:40.863Z,1.40
2023-04-26T03:20:11.083Z,1.20
2023-04-26T03:22:40.325Z,1.17
2023-04-26T03:25:10.521Z,2.20
2023-04-26T03:27:39.126Z,1.17
2023-04-26T03:30:10.680Z,1.20
2023-04-26T03:32:40.521Z,1.40
2023-04-26T03:35:10.276Z,1.20
2023-04-26T03:37:40.246Z,1.30
2023-04-26T03:40:13.552Z,1.07
2023-04-26T03:42:42.208Z,1.50
2023-04-26T03:45:13.347Z,1.60
2023-04-26T03:47:41.919Z,1.33
2023-04-26T03:50:12.064Z,1.60
2023-04-26T03:52:40.683Z,1.37
2023-04-26T03:55:11.980Z,1.33
2023-04-26T03:57:41.249Z,1.57
2023-04-26T04:00:14.005Z,1.47
2023-04-26T04:02:46.303Z,1.40
2023-04-26T04:05:24.201Z,1.43
2023-04-26T04:07:53.354Z,1.33
2023-04-26T04:10:23.603Z,1.30
2023-04-26T04:12:53.230Z,1.57
2023-04-26T04:15:24.232Z,1.10
2023-04-26T04:17:53.087Z,1.33
2023-04-26T04:20:22.798Z,1.43
2023-04-26T04:22:52.980Z,1.43
2023-04-26T04:25:22.311Z,1.13
2023-04-26T04:27:52.021Z,1.77
2023-04-26T04:30:20.743Z,1.30
2023-04-26T04:32:50.936Z,1.33
2023-04-26T04:35:19.843Z,1.40
2023-04-26T04:37:50.268Z,1.40
2023-04-26T04:40:19.149Z,1.50
2023-04-26T04:42:50.224Z,1.60
2023-04-26T04:45:19.959Z,1.30
2023-04-26T04:47:54.133Z,1.77
2023-04-26T04:50:23.522Z,1.30
2023-04-26T04:52:52.140Z,1.67
2023-04-26T04:55:21.767Z,1.43
2023-04-26T04:57:50.416Z,1.20
2023-04-26T05:00:21.583Z,1.40
2023-04-26T05:03:13.261Z,1.33
2023-04-26T05:05:42.181Z,1.30
2023-04-26T05:08:10.840Z,1.20
2023-04-26T05:10:39.562Z,1.50
2023-04-26T05:13:08.263Z,1.80
2023-04-26T05:15:36.919Z,1.30
2023-04-26T05:18:06.226Z,1.53
2023-04-26T05:20:36.349Z,1.80
2023-04-26T05:23:05.095Z,1.90
2023-04-26T05:25:37.533Z,1.80
2023-04-26T05:28:25.790Z,1.80
2023-04-26T05:31:13.511Z,1.77
2023-04-26T05:34:00.183Z,2.00
2023-04-26T05:36:37.679Z,1.67
2023-04-26T05:39:07.545Z,1.80
2023-04-26T05:41:36.431Z,1.57
2023-04-26T05:44:05.270Z,1.80
2023-04-26T05:46:34.108Z,1.70
2023-04-26T05:49:04.013Z,1.63
2023-04-26T05:51:33.287Z,1.40
2023-04-26T05:54:03.810Z,1.90
2023-04-26T05:56:33.274Z,1.50
2023-04-26T05:59:01.844Z,2.30
2023-04-26T06:01:31.761Z,1.40
2023-04-26T06:04:01.570Z,1.30
2023-04-26T06:06:37.147Z,1.60
2023-04-26T06:09:07.351Z,1.50
2023-04-26T06:11:36.049Z,1.30
2023-04-26T06:14:04.842Z,2.40
2023-04-26T06:16:33.830Z,1.30
2023-04-26T06:19:02.633Z,1.90
2023-04-26T06:21:32.134Z,1.73
2023-04-26T06:24:00.713Z,1.70
2023-04-26T06:26:33.146Z,1.97
2023-04-26T06:29:02.494Z,1.80
2023-04-26T06:31:32.156Z,1.47
2023-04-26T06:34:00.979Z,1.40
2023-04-26T06:36:29.498Z,2.13
2023-04-26T06:38:58.503Z,2.20
2023-04-26T06:41:27.234Z,1.53
2023-04-26T06:43:58.523Z,3.13
2023-04-26T06:46:33.246Z,1.60
2023-04-26T06:49:02.884Z,2.00
2023-04-26T06:51:31.519Z,1.43
2023-04-26T06:54:01.057Z,1.70
2023-04-26T06:56:29.771Z,1.67
2023-04-26T06:59:04.132Z,2.03
2023-04-26T07:01:34.684Z,2.30
2023-04-26T07:04:04.469Z,2.57
2023-04-26T07:06:33.382Z,3.30
2023-04-26T07:09:02.958Z,1.63
2023-04-26T07:11:32.349Z,2.77
2023-04-26T07:14:02.452Z,3.80
2023-04-26T07:16:31.586Z,2.17
2023-04-26T07:19:00.254Z,1.80
2023-04-26T07:21:28.845Z,1.80
2023-04-26T07:23:57.453Z,1.50
2023-04-26T07:26:26.989Z,2.10
2023-04-26T07:28:56.637Z,1.60
2023-04-26T07:31:29.839Z,2.30
2023-04-26T07:33:58.422Z,1.90
2023-04-26T07:36:27.892Z,1.57
2023-04-26T07:38:56.629Z,1.83
2023-04-26T07:41:25.364Z,2.43
2023-04-26T07:43:54.221Z,2.00
2023-04-26T07:46:22.950Z,1.33
2023-04-26T07:48:53.007Z,1.90
2023-04-26T07:51:21.706Z,1.70
2023-04-26T07:53:51.014Z,1.90
2023-04-26T07:56:19.918Z,2.40
2023-04-26T07:58:48.432Z,2.30
2023-04-26T08:01:17.102Z,1.30
2023-04-26T08:03:45.935Z,1.40
2023-04-26T08:06:16.916Z,1.90
2023-04-26T08:08:49.314Z,1.83
2023-04-26T08:11:18.334Z,2.50
2023-04-26T08:13:47.021Z,3.03
2023-04-26T08:16:15.708Z,1.67
2023-04-26T08:18:46.604Z,1.40
2023-04-26T08:21:16.978Z,1.50
2023-04-26T08:23:45.541Z,1.93
2023-04-26T08:26:14.264Z,1.50
2023-04-26T08:28:42.796Z,1.73
2023-04-26T08:31:11.431Z,1.43
2023-04-26T08:33:39.974Z,1.40
2023-04-26T08:36:09.126Z,1.27
2023-04-26T08:38:39.092Z,1.83
2023-04-26T08:41:10.999Z,1.57
2023-04-26T08:43:40.479Z,1.60
2023-04-26T08:46:13.711Z,1.30
2023-04-26T08:48:42.361Z,1.30
2023-04-26T08:51:14.061Z,1.67
2023-04-26T08:53:44.450Z,1.77
2023-04-26T08:56:14.165Z,1.80
2023-04-26T08:58:42.753Z,1.63
2023-04-26T09:01:15.356Z,1.60
2023-04-26T09:03:43.874Z,1.77
2023-04-26T09:06:13.353Z,2.60
2023-04-26T09:08:44.736Z,2.60
2023-04-26T09:11:13.109Z,2.30
2023-04-26T09:13:41.453Z,2.10
2023-04-26T09:16:10.262Z,2.20
2023-04-26T09:18:50.898Z,2.67
2023-04-26T09:21:22.424Z,2.20
2023-04-26T09:24:04.478Z,1.57
2023-04-26T09:26:32.887Z,2.40
2023-04-26T09:29:15.456Z,1.63
2023-04-26T09:31:48.648Z,2.00
2023-04-26T09:34:18.081Z,1.90
2023-04-26T09:36:53.351Z,1.77
2023-04-26T09:39:44.346Z,1.80
2023-04-26T09:42:12.770Z,2.00
2023-04-26T09:44:41.408Z,1.67
2023-04-26T09:47:11.882Z,2.47
2023-04-26T09:49:48.857Z,1.93
2023-04-26T09:52:18.361Z,1.87
2023-04-26T09:54:51.729Z,1.77
2023-04-26T09:57:22.219Z,1.73
2023-04-26T09:59:55.021Z,1.70
2023-04-26T10:02:26.393Z,1.80
2023-04-26T10:04:57.283Z,1.90
2023-04-26T10:07:27.108Z,1.70
2023-04-26T10:09:59.563Z,1.70
2023-04-26T10:12:28.159Z,1.63
2023-04-26T10:14:57.954Z,2.07
2023-04-26T10:17:26.413Z,1.50
2023-04-26T10:19:59.044Z,2.00
2023-04-26T10:22:33.625Z,1.70
2023-04-26T10:25:03.577Z,1.63
2023-04-26T10:27:51.682Z,1.50
2023-04-26T10:30:26.959Z,1.47
2023-04-26T10:33:16.571Z,2.27
2023-04-26T10:36:07.414Z,1.80
2023-04-26T10:38:37.231Z,1.67
2023-04-26T10:41:36.582Z,1.70
2023-04-26T10:44:38.914Z,1.50
2023-04-26T10:47:08.806Z,1.80
2023-04-26T10:49:48.588Z,1.90
2023-04-26T10:52:23.012Z,1.50
2023-04-26T10:54:58.448Z,1.87
2023-04-26T10:57:49.786Z,1.40
2023-04-26T11:00:21.122Z,1.87
2023-04-26T11:02:58.976Z,1.60
2023-04-26T11:05:56.029Z,1.50
2023-04-26T11:08:29.979Z,1.27
2023-04-26T11:11:06.084Z,1.50
2023-04-26T11:13:37.748Z,1.60
2023-04-26T11:16:07.423Z,1.70
2023-04-26T11:18:37.383Z,2.07
2023-04-26T11:21:06.551Z,2.30
2023-04-26T11:23:35.472Z,1.23
2023-04-26T11:26:05.653Z,2.00
2023-04-26T11:28:36.722Z,1.37
2023-04-26T11:31:05.683Z,1.23
2023-04-26T11:33:35.233Z,1.50
2023-04-26T11:36:04.167Z,1.60
2023-04-26T11:38:32.507Z,1.93
2023-04-26T11:41:02.199Z,1.57
2023-04-26T11:43:38.717Z,1.43
2023-04-26T11:46:08.615Z,1.30
2023-04-26T11:48:38.658Z,1.40
2023-04-26T11:51:08.138Z,1.53
2023-04-26T11:53:37.688Z,1.47
2023-04-26T11:56:14.290Z,1.63
2023-04-26T11:58:46.026Z,2.00
2023-04-26T12:01:21.993Z,1.47
2023-04-26T12:03:54.394Z,1.60
2023-04-26T12:06:30.506Z,1.50
2023-04-26T12:08:58.840Z,1.77
2023-04-26T12:11:28.184Z,1.57
2023-04-26T12:13:59.582Z,1.40
2023-04-26T12:16:28.010Z,1.60
2023-04-26T12:18:57.750Z,2.40
2023-04-26T12:21:29.875Z,1.90
2023-04-26T12:23:59.530Z,1.87
2023-04-26T12:26:45.340Z,1.60
2023-04-26T12:29:18.225Z,1.47
2023-04-26T12:31:47.478Z,1.80
2023-04-26T12:34:15.903Z,1.63
2023-04-26T12:36:44.634Z,1.90
2023-04-26T12:39:16.959Z,1.77
2023-04-26T12:41:46.233Z,1.83
2023-04-26T12:44:15.029Z,1.80
2023-04-26T12:46:44.900Z,1.93
2023-04-26T12:49:13.299Z,1.70
2023-04-26T12:51:41.637Z,1.73
2023-04-26T12:54:13.056Z,1.93
2023-04-26T12:56:44.625Z,1.70
2023-04-26T12:59:13.200Z,1.50
2023-04-26T13:01:42.039Z,1.37
2023-04-26T13:04:12.017Z,1.47
2023-04-26T13:06:40.703Z,1.33
2023-04-26T13:09:09.324Z,1.43
2023-04-26T13:11:37.678Z,1.70
2023-04-26T13:14:06.918Z,2.80
2023-04-26T13:16:35.435Z,2.42
2023-04-26T13:19:03.970Z,1.87
2023-04-26T13:21:34.065Z,2.57
2023-04-26T13:24:02.445Z,1.80
2023-04-26T13:26:30.831Z,1.60
2023-04-26T13:28:59.227Z,1.40
2023-04-26T13:31:27.825Z,1.70
2023-04-26T13:33:56.401Z,1.77
2023-04-26T13:36:24.893Z,1.40
2023-04-26T13:38:54.749Z,1.20
2023-04-26T13:41:23.781Z,1.70
2023-04-26T13:43:52.180Z,1.83
2023-04-26T13:46:20.795Z,1.80
2023-04-26T13:48:49.361Z,2.00
2023-04-26T13:51:17.688Z,2.30
2023-04-26T13:53:46.398Z,1.70
2023-04-26T13:56:16.391Z,1.20
2023-04-26T13:58:45.065Z,1.37
2023-04-26T14:01:14.016Z,2.20
2023-04-26T14:03:43.016Z,2.33
2023-04-26T14:06:12.262Z,2.63
2023-04-26T14:08:40.820Z,2.60
2023-04-26T14:11:11.218Z,1.70
2023-04-26T14:13:42.164Z,1.93
2023-04-26T14:16:11.023Z,1.77
2023-04-26T14:18:45.098Z,2.03
2023-04-26T14:21:13.761Z,1.90
2023-04-26T14:23:42.104Z,1.87
2023-04-26T14:26:10.580Z,1.73
2023-04-26T14:28:39.260Z,1.60
2023-04-26T14:31:09.193Z,3.50
2023-04-26T14:33:37.619Z,3.90
2023-04-26T14:36:06.534Z,4.70
2023-04-26T14:38:34.839Z,4.95
2023-04-26T14:41:03.230Z,3.20
2023-04-26T14:43:31.688Z,2.90
2023-04-26T14:46:00.117Z,3.40
2023-04-26T14:48:29.913Z,3.37
2023-04-26T14:51:01.477Z,2.90
2023-04-26T14:53:30.043Z,3.10
2023-04-26T14:55:58.956Z,2.93
2023-04-26T14:58:30.766Z,3.73
2023-04-26T15:00:59.223Z,3.07
2023-04-26T15:03:29.661Z,2.23
2023-04-26T15:05:58.819Z,3.37
2023-04-26T15:08:28.600Z,3.10
2023-04-26T15:10:56.959Z,3.10
2023-04-26T15:13:25.461Z,2.67
2023-04-26T15:15:53.780Z,2.90
2023-04-26T15:18:22.542Z,2.37
2023-04-26T15:20:52.442Z,2.60
2023-04-26T15:23:21.125Z,4.00
2023-04-26T15:25:49.626Z,3.43
2023-04-26T15:28:18.132Z,2.10
2023-04-26T15:30:46.941Z,3.33
2023-04-26T15:33:18.756Z,2.80
2023-04-26T15:35:47.548Z,2.90
2023-04-26T15:38:20.715Z,3.00
2023-04-26T15:40:50.644Z,2.77
2023-04-26T15:43:19.296Z,2.20
2023-04-26T15:45:48.963Z,3.20
2023-04-26T15:48:17.570Z,2.63
2023-04-26T15:50:46.375Z,2.20
2023-04-26T15:53:17.749Z,2.50
2023-04-26T15:55:47.988Z,3.07
2023-04-26T15:58:16.345Z,3.23
2023-04-26T16:00:44.925Z,2.60
2023-04-26T16:03:13.617Z,2.17
2023-04-26T16:05:41.987Z,1.97
2023-04-26T16:08:10.665Z,3.03
2023-04-26T16:10:39.020Z,2.70
2023-04-26T16:13:08.718Z,2.07
2023-04-26T16:15:37.153Z,2.60
2023-04-26T16:18:06.898Z,2.20
2023-04-26T16:20:35.672Z,2.60
2023-04-26T16:23:04.345Z,2.33
2023-04-26T16:25:32.816Z,2.63
2023-04-26T16:28:01.881Z,2.43
2023-04-26T16:30:32.411Z,2.50
2023-04-26T16:33:01.400Z,2.10
2023-04-26T16:35:29.833Z,2.70
2023-04-26T16:37:58.224Z,2.33
2023-04-26T16:40:27.426Z,2.30
2023-04-26T16:42:55.937Z,2.03
2023-04-26T16:45:24.736Z,2.20
2023-04-26T16:47:55.651Z,1.80
2023-04-26T16:50:24.470Z,1.70
2023-04-26T16:52:53.007Z,1.70
2023-04-26T16:55:21.301Z,3.10
2023-04-26T16:57:49.962Z,2.77
2023-04-26T17:00:19.374Z,2.20
2023-04-26T17:02:50.384Z,2.50
2023-04-26T17:05:20.673Z,2.43
2023-04-26T17:07:48.989Z,1.83
2023-04-26T17:10:17.556Z,2.50
2023-04-26T17:12:45.867Z,1.90
2023-04-26T17:15:14.504Z,1.70
2023-04-26T17:17:42.847Z,2.50
2023-04-26T17:20:13.609Z,2.50
2023-04-26T17:22:43.449Z,1.80
2023-04-26T17:25:11.891Z,1.77
2023-04-26T17:27:40.225Z,2.50
2023-04-26T17:30:09.628Z,1.97
2023-04-26T17:32:38.092Z,1.80
2023-04-26T17:35:07.610Z,2.20
2023-04-26T17:37:36.181Z,2.20
2023-04-26T17:40:07.746Z,2.10
2023-04-26T17:42:36.116Z,2.00
2023-04-26T17:45:05.476Z,2.33
2023-04-26T17:47:33.863Z,2.10
2023-04-26T17:50:02.302Z,2.60
2023-04-26T17:52:31.386Z,2.43
2023-04-26T17:54:59.671Z,2.53
2023-04-26T17:57:29.477Z,2.03
2023-04-26T17:59:57.885Z,2.60
2023-04-26T18:02:26.413Z,2.20
2023-04-26T18:04:55.493Z,2.17
2023-04-26T18:07:24.619Z,2.10
2023-04-26T18:09:53.015Z,2.27
2023-04-26T18:12:25.411Z,2.30
2023-04-26T18:14:55.168Z,2.40
2023-04-26T18:17:23.786Z,2.57
2023-04-26T18:19:52.282Z,2.03
2023-04-26T18:22:20.833Z,1.80
2023-04-26T18:24:49.357Z,1.80
2023-04-26T18:27:17.735Z,2.20
2023-04-26T18:29:46.311Z,2.40
2023-04-26T18:32:16.128Z,2.10
2023-04-26T18:34:45.080Z,1.60
2023-04-26T18:37:13.472Z,2.20
2023-04-26T18:39:41.828Z,1.97
2023-04-26T18:42:10.201Z,2.20
2023-04-26T18:44:38.516Z,2.30
2023-04-26T18:47:06.960Z,2.23
2023-04-26T18:49:36.723Z,2.37
2023-04-26T18:52:08.662Z,2.37
2023-04-26T18:54:40.186Z,2.20
2023-04-26T18:57:10.432Z,2.23
2023-04-26T18:59:39.239Z,2.63
2023-04-26T19:02:08.942Z,2.43
2023-04-26T19:04:39.117Z,2.07
2023-04-26T19:07:07.713Z,1.77
2023-04-26T19:09:50.430Z,2.10
2023-04-26T19:12:21.986Z,2.40
2023-04-26T19:14:51.280Z,1.80
2023-04-26T19:17:19.864Z,1.63
2023-04-26T19:19:52.118Z,1.43
2023-04-26T19:22:20.727Z,2.97
2023-04-26T19:24:51.025Z,2.47
2023-04-26T19:27:19.648Z,2.00
2023-04-26T19:29:48.299Z,1.70
2023-04-26T19:32:19.021Z,2.03
2023-04-26T19:34:48.900Z,1.73
2023-04-26T19:37:17.361Z,1.83
2023-04-26T19:39:46.098Z,2.00
2023-04-26T19:42:14.508Z,2.10
2023-04-26T19:44:43.045Z,2.10
2023-04-26T19:47:11.732Z,2.07
2023-04-26T19:49:40.219Z,2.00
2023-04-26T19:52:09.977Z,2.10
2023-04-26T19:54:38.651Z,2.00
2023-04-26T19:57:07.179Z,2.00
2023-04-26T19:59:35.676Z,1.70
2023-04-26T20:02:06.701Z,2.10
2023-04-26T20:04:35.354Z,2.00
2023-04-26T20:07:05.520Z,1.90
2023-04-26T20:09:36.933Z,2.00
2023-04-26T20:12:05.629Z,2.07
2023-04-26T20:14:34.858Z,1.97
2023-04-26T20:17:03.970Z,2.20
2023-04-26T20:19:32.549Z,2.07
2023-04-26T20:22:01.147Z,2.00
2023-04-26T20:24:29.666Z,1.70
2023-04-26T20:26:59.654Z,2.20
2023-04-26T20:29:28.135Z,1.80
2023-04-26T20:31:56.591Z,1.80
2023-04-26T20:34:25.292Z,1.93
2023-04-26T20:36:53.826Z,2.27
2023-04-26T20:39:22.602Z,1.80
2023-04-26T20:41:51.172Z,1.80
2023-04-26T20:44:21.408Z,2.60
2023-04-26T20:46:50.005Z,1.97
2023-04-26T20:49:18.447Z,2.00
2023-04-26T20:51:47.400Z,2.03
2023-04-26T20:54:15.883Z,1.80
2023-04-26T20:56:44.451Z,2.30
2023-04-26T20:59:12.944Z,1.60
2023-04-26T21:01:42.781Z,2.23
2023-04-26T21:04:11.407Z,1.80
2023-04-26T21:06:40.416Z,2.03
2023-04-26T21:09:09.350Z,2.03
2023-04-26T21:11:38.018Z,2.50
2023-04-26T21:14:06.906Z,1.90
2023-04-26T21:16:35.396Z,1.73
2023-04-26T21:19:05.671Z,1.90
2023-04-26T21:21:34.225Z,1.83
2023-04-26T21:24:02.747Z,1.50
2023-04-26T21:26:31.336Z,1.80
2023-04-26T21:28:59.777Z,1.70
2023-04-26T21:31:28.352Z,1.90
2023-04-26T21:33:56.989Z,2.60
2023-04-26T21:36:26.864Z,1.67
2023-04-26T21:38:55.439Z,2.37
2023-04-26T21:41:25.780Z,1.67
2023-04-26T21:43:55.253Z,2.10
2023-04-26T21:46:23.789Z,1.87
2023-04-26T21:48:52.262Z,1.60
2023-04-26T21:51:21.125Z,2.03
2023-04-26T21:53:50.980Z,1.60
2023-04-26T21:56:19.552Z,1.70
2023-04-26T21:58:48.087Z,1.80
2023-04-26T22:01:17.327Z,1.90
2023-04-26T22:03:45.912Z,2.00
2023-04-26T22:06:14.516Z,1.90
2023-04-26T22:08:43.067Z,1.87
2023-04-26T22:11:12.949Z,1.90
2023-04-26T22:13:41.408Z,1.80
2023-04-26T22:16:09.851Z,1.93
2023-04-26T22:18:38.290Z,2.00
2023-04-26T22:21:07.071Z,2.10
2023-04-26T22:23:35.933Z,2.07
2023-04-26T22:26:04.429Z,1.63
2023-04-26T22:28:34.270Z,2.00
2023-04-26T22:31:02.746Z,1.67
2023-04-26T22:33:31.209Z,1.90
2023-04-26T22:35:59.710Z,1.67
2023-04-26T22:38:28.277Z,1.77
2023-04-26T22:40:56.856Z,1.30
2023-04-26T22:43:25.340Z,1.77
2023-04-26T22:45:55.084Z,1.60
2023-04-26T22:48:23.520Z,1.80
2023-04-26T22:50:52.074Z,2.10
2023-04-26T22:53:20.739Z,1.50
2023-04-26T22:55:49.232Z,2.13
2023-04-26T22:58:17.949Z,1.53
2023-04-26T23:00:46.370Z,1.73
2023-04-26T23:03:16.347Z,1.80
2023-04-26T23:05:45.580Z,1.90
2023-04-26T23:08:14.108Z,1.93
2023-04-26T23:10:42.497Z,1.70
2023-04-26T23:13:10.981Z,2.10
2023-04-26T23:15:39.459Z,1.70
2023-04-26T23:18:08.054Z,1.90
2023-04-26T23:20:37.940Z,1.77
2023-04-26T23:23:06.439Z,1.70
2023-04-26T23:25:41.702Z,1.73
2023-04-26T23:28:10.270Z,1.70
2023-04-26T23:30:38.769Z,1.90
2023-04-26T23:33:07.398Z,1.77
2023-04-26T23:35:41.015Z,2.27
2023-04-26T23:38:09.564Z,2.10
2023-04-26T23:40:38.149Z,1.80
2023-04-26T23:43:06.609Z,1.80
2023-04-26T23:45:35.161Z,1.97
2023-04-26T23:48:03.706Z,1.80
2023-04-26T23:50:32.094Z,1.77
2023-04-26T23:53:01.954Z,1.90
2023-04-26T23:55:30.738Z,2.10
2023-04-26T23:57:59.182Z,1.80
